Data for 08/19/2018

Time Sea-Level Adjusted Pressure Absolute Pressure Temperature Relative Humidity Dew Point   
(mb) (inHg) (mb) (inHg) (C) (F) (%) (C) (F)
00:05 1027 30.33 856 25.28 12.8 55 72 8 46.3
00:10 1027 30.33 856 25.28 12.5 54.4 73 7.8 46
00:15 1026 30.3 856 25.28 12.5 54.5 73 7.8 46
00:20 1027 30.33 856 25.28 12.4 54.3 73 7.8 46
00:25 1027 30.33 856 25.28 12.3 54.2 74 7.8 46
00:30 1027 30.33 856 25.28 12.2 54 74 7.8 46
00:35 1027 30.33 856 25.28 12.2 54 74 7.7 45.9
00:40 1027 30.33 856 25.28 12.1 53.8 75 7.8 46
00:45 1027 30.33 856 25.28 12.1 53.8 74 7.6 45.7
00:50 1027 30.33 856 25.28 12.1 53.9 74 7.7 45.8
00:55 1027 30.33 856 25.28 12.1 53.8 73 7.6 45.6
01:00 1027 30.33 856 25.28 12.2 53.9 74 7.7 45.8
01:05 1027 30.33 856 25.28 12.1 53.7 74 7.6 45.8
01:10 1027 30.33 856 25.28 12.2 53.9 73 7.6 45.7
01:15 1027 30.33 856 25.28 12 53.7 74 7.6 45.7
01:20 1027 30.33 856 25.28 11.8 53.2 75 7.5 45.5
01:25 1027 30.33 856 25.28 11.8 53.2 75 7.5 45.4
01:30 1027 30.33 856 25.28 12.1 53.8 73 7.4 45.2
01:35 1027 30.33 856 25.28 12.3 54.1 72 7.5 45.5
01:40 1027 30.33 856 25.28 12.4 54.2 72 7.4 45.4
01:45 1027 30.33 856 25.28 12.3 54.1 72 7.5 45.5
01:50 1026 30.3 856 25.28 12.2 53.9 73 7.5 45.6
01:55 1027 30.33 856 25.28 12 53.6 73 7.4 45.3
02:00 1027 30.33 856 25.28 12.1 53.8 72 7.3 45.1
02:05 1027 30.33 856 25.28 12 53.6 73 7.4 45.4
02:10 1027 30.33 856 25.28 11.7 53 74 7.2 45
02:15 1027 30.33 856 25.28 11.4 52.6 75 7.1 44.8
02:20 1027 30.33 856 25.28 11.4 52.5 74 7 44.6
02:25 1027 30.33 856 25.28 11.4 52.5 74 7 44.6
02:30 1027 30.33 856 25.28 11.2 52.1 74 6.8 44.2
02:35 1026 30.3 856 25.28 11 51.8 74 6.6 43.9
02:40 1026 30.3 856 25.28 11.1 51.9 74 6.6 43.9
02:45 1026 30.3 856 25.28 11.1 52.1 73 6.6 43.8
02:50 1026 30.3 856 25.28 11.3 52.4 72 6.4 43.5
02:55 1026 30.3 856 25.28 11.4 52.6 72 6.7 44
03:00 1026 30.3 856 25.28 11.3 52.3 73 6.6 43.9
03:05 1026 30.3 856 25.28 11.2 52.1 73 6.5 43.7
03:10 1026 30.3 856 25.28 11.2 52.2 73 6.5 43.7
03:15 1026 30.3 856 25.28 11 51.8 73 6.4 43.6
03:20 1026 30.3 856 25.28 10.9 51.6 74 6.4 43.6
03:25 1026 30.3 856 25.28 10.8 51.4 74 6.3 43.4
03:30 1026 30.3 856 25.28 10.8 51.5 74 6.3 43.4
03:35 1026 30.3 856 25.28 10.7 51.3 74 6.3 43.4
03:40 1026 30.3 856 25.28 10.8 51.4 73 6.2 43.2
03:45 1026 30.3 856 25.28 10.8 51.4 73 6.1 42.9
03:50 1026 30.3 856 25.28 10.9 51.7 72 6.2 43.1
03:55 1026 30.3 856 25.28 11 51.8 71 6.1 42.9
04:00 1026 30.3 856 25.28 11.1 52 71 6.1 42.9
04:05 1026 30.3 855 25.25 11 51.8 71 6.1 42.9
04:10 1026 30.3 856 25.28 11 51.8 71 6 42.9
04:15 1026 30.3 856 25.28 11 51.8 71 6 42.8
04:20 1026 30.3 856 25.28 11.1 52 70 5.9 42.6
04:25 1026 30.3 856 25.28 11.4 52.5 69 5.9 42.7
04:30 1026 30.3 856 25.28 11.4 52.6 69 5.9 42.7
04:35 1026 30.3 856 25.28 11.3 52.3 69 5.9 42.7
04:40 1026 30.3 856 25.28 11 51.9 71 6 42.8
04:45 1026 30.3 856 25.28 10.7 51.2 71 5.7 42.3
04:50 1026 30.3 856 25.28 10.7 51.2 72 5.8 42.5
04:55 1026 30.3 856 25.28 10.6 51 72 5.8 42.5
05:00 1026 30.3 856 25.28 10.5 50.9 72 5.7 42.3
05:05 1026 30.3 856 25.28 10.5 51 72 5.7 42.2
05:10 1026 30.3 856 25.28 10.6 51.1 71 5.6 42
05:15 1026 30.3 856 25.28 10.9 51.6 70 5.8 42.4
05:20 1027 30.33 856 25.28 10.9 51.6 71 5.9 42.6
05:25 1027 30.33 856 25.28 10.7 51.3 72 5.8 42.5
05:30 1027 30.33 856 25.28 10.7 51.2 72 5.8 42.4
05:35 1027 30.33 856 25.28 10.8 51.4 71 5.8 42.5
05:40 1027 30.33 856 25.28 10.6 51.2 72 5.9 42.5
05:45 1027 30.33 856 25.28 10.5 50.8 73 5.8 42.4
05:50 1027 30.33 856 25.28 10.4 50.7 74 5.9 42.6
05:55 1027 30.33 856 25.28 10.6 51 73 5.9 42.6
06:00 1027 30.33 856 25.28 11 51.7 72 6.1 42.9
06:05 1027 30.33 856 25.28 11.4 52.5 70 6.1 43
06:10 1027 30.33 856 25.28 11.9 53.4 68 6.1 43
06:15 1027 30.33 856 25.28 12.5 54.5 65 6.2 43.1
06:20 1027 30.33 856 25.28 12.9 55.2 64 6.2 43.2
06:25 1027 30.33 856 25.28 13 55.4 64 6.4 43.5
06:30 1027 30.33 856 25.28 13.1 55.6 63 6.2 43.1
06:35 1027 30.33 856 25.28 13.3 55.9 61 6 42.9
06:40 1027 30.33 856 25.28 13.4 56.2 61 6.2 43.2
06:45 1027 30.33 856 25.28 13.5 56.2 61 6.2 43.2
06:50 1027 30.33 856 25.28 13.5 56.2 62 6.3 43.4
06:55 1027 30.33 856 25.28 13.5 56.2 62 6.4 43.6
07:00 1027 30.33 856 25.28 13.5 56.3 61 6.2 43.2
07:05 1027 30.33 856 25.28 13.6 56.6 61 6.3 43.3
07:10 1027 30.33 856 25.28 13.7 56.7 61 6.3 43.3
07:15 1027 30.33 856 25.28 13.8 56.8 60 6.3 43.4
07:20 1027 30.33 856 25.28 13.9 57 61 6.5 43.7
07:25 1027 30.33 856 25.28 14 57.2 60 6.5 43.6
07:30 1027 30.33 856 25.28 14.2 57.5 59 6.3 43.4
07:35 1027 30.33 856 25.28 14.4 57.9 58 6.3 43.4
07:40 1026 30.3 856 25.28 14.6 58.2 58 6.4 43.6
07:45 1026 30.3 856 25.28 14.7 58.5 57 6.5 43.6
07:50 1026 30.3 856 25.28 14.9 58.7 57 6.5 43.7
07:55 1026 30.3 856 25.28 15 59 56 6.5 43.7
08:00 1026 30.3 856 25.28 15.1 59.2 55 6.3 43.3
08:05 1026 30.3 855 25.25 15.4 59.8 54 6.2 43.2
08:10 1026 30.3 855 25.25 15.7 60.2 53 6.2 43.2
08:15 1026 30.3 855 25.25 15.7 60.2 53 6.2 43.2
08:20 1026 30.3 855 25.25 15.9 60.6 53 6.4 43.5
08:25 1026 30.3 855 25.25 15.9 60.6 54 6.7 44
08:30 1026 30.3 855 25.25 16.1 60.9 53 6.7 44.1
08:35 1026 30.3 855 25.25 16.2 61.1 53 6.7 44.1
08:40 1026 30.3 855 25.25 16.4 61.6 53 6.8 44.2
08:45 1026 30.3 855 25.25 16.6 61.8 53 7 44.5
08:50 1026 30.3 855 25.25 16.8 62.2 52 7.1 44.8
08:55 1026 30.3 855 25.25 17.1 62.7 51 7.1 44.7
09:00 1026 30.3 855 25.25 17 62.7 52 7.3 45.1
09:05 1026 30.3 855 25.25 17.4 63.3 50 7.1 44.8
09:10 1026 30.3 855 25.25 17.8 64 49 7.1 44.8
09:15 1026 30.3 855 25.25 17.8 64.1 49 7.1 44.7
09:20 1026 30.3 855 25.25 17.9 64.3 49 7.2 45
09:25 1026 30.3 855 25.25 17.9 64.3 48 6.8 44.3
09:30 1026 30.3 855 25.25 18.1 64.6 47 6.8 44.3
09:35 1026 30.3 855 25.25 18.2 64.7 49 7.3 45.2
09:40 1026 30.3 855 25.25 18.2 64.8 49 7.3 45.2
09:45 1026 30.3 855 25.25 18.3 64.9 50 7.7 45.9
09:50 1026 30.3 855 25.25 17.9 64.2 49 7.3 45.1
09:55 1026 30.3 855 25.25 18.6 65.5 48 7.5 45.5
10:00 1026 30.3 855 25.25 18.8 65.9 47 7.3 45.1
10:05 1026 30.3 855 25.25 19.1 66.3 48 8 46.4
10:10 1026 30.3 855 25.25 18.8 65.8 48 7.8 46
10:15 1026 30.3 855 25.25 18.9 66 47 7.4 45.3
10:20 1026 30.3 855 25.25 19.5 67.2 48 8.3 46.9
10:25 1026 30.3 855 25.25 19.2 66.5 49 8.2 46.8
10:30 1026 30.3 855 25.25 19.6 67.2 46 7.9 46.2
10:35 1026 30.3 855 25.25 19.9 67.9 44 7.4 45.3
10:40 1026 30.3 855 25.25 19.5 67.1 45 7.4 45.4
10:45 1026 30.3 855 25.25 20.3 68.5 44 7.8 46.1
10:50 1026 30.3 855 25.25 20.5 69 44 7.9 46.3
10:55 1026 30.3 855 25.25 20.4 68.8 45 8.4 47
11:00 1025 30.27 855 25.25 20.3 68.5 44 7.8 46
11:05 1025 30.27 855 25.25 21.3 70.3 41 7.6 45.6
11:10 1025 30.27 854 25.22 21.4 70.6 42 8.3 47
11:15 1025 30.27 854 25.22 21 69.8 45 8.6 47.5
11:20 1025 30.27 854 25.22 20.8 69.4 42 7.6 45.7
11:25 1025 30.27 854 25.22 21.6 70.9 40 7.5 45.5
11:30 1025 30.27 854 25.22 21 69.8 42 7.7 45.9
11:35 1025 30.27 854 25.22 21.6 70.8 41 8 46.4
11:40 1025 30.27 854 25.22 22.1 71.8 39 7.6 45.6
11:45 1025 30.27 854 25.22 22.5 72.5 38 7.7 45.8
11:50 1025 30.27 854 25.22 22.6 72.8 37 7.5 45.4
11:55 1025 30.27 854 25.22 21.7 71.1 39 7.2 45
12:00 1025 30.27 854 25.22 22.5 72.5 37 7.3 45.2
12:05 1025 30.27 854 25.22 23 73.3 34 6.5 43.6
12:10 1025 30.27 854 25.22 23 73.3 36 7.5 45.4
12:15 1025 30.27 854 25.22 23.1 73.5 34 6.5 43.7
12:20 1024 30.24 854 25.22 23.8 74.8 34 7.3 45.2
12:25 1024 30.24 854 25.22 23.6 74.5 34 6.9 44.5
12:30 1024 30.24 853 25.19 23.8 74.9 33 6.8 44.3
12:35 1024 30.24 853 25.19 24.2 75.6 33 7.2 45
12:40 1024 30.24 853 25.19 23.2 73.8 37 7.7 45.9
12:45 1024 30.24 853 25.19 22.4 72.3 34 5.8 42.4
12:50 1024 30.24 853 25.19 23.8 74.8 32 6.4 43.4
12:55 1024 30.24 853 25.19 23.8 74.8 33 6.8 44.2
13:00 1024 30.24 853 25.19 23.2 73.8 35 7.3 45.1
13:05 1024 30.24 853 25.19 23.4 74.2 32 6.2 43.1
13:10 1024 30.24 853 25.19 24.5 76 31 6.4 43.4
13:15 1024 30.24 853 25.19 24.1 75.3 32 6.6 43.9
13:20 1024 30.24 853 25.19 24.4 75.9 31 6.3 43.3
13:25 1024 30.24 853 25.19 24.4 76 31 6.4 43.5
13:30 1024 30.24 853 25.19 24.8 76.6 29 5.8 42.5
13:35 1024 30.24 853 25.19 25.3 77.5 29 6.3 43.3
13:40 1024 30.24 853 25.19 25.9 78.7 29 6.7 44.1
13:45 1024 30.24 853 25.19 26 78.7 29 6.8 44.3
13:50 1024 30.24 853 25.19 25.9 78.6 28 6.4 43.6
13:55 1023 30.21 853 25.19 25.8 78.4 28 6.2 43.2
14:00 1023 30.21 853 25.19 24.9 76.7 30 6.1 43
14:05 1023 30.21 852 25.16 25.5 77.9 29 6.3 43.4
14:10 1023 30.21 852 25.16 24.8 76.7 30 6.1 42.9
14:15 1023 30.21 852 25.16 25.5 77.8 26 4.9 40.9
14:20 1023 30.21 852 25.16 25.7 78.3 28 5.9 42.7
14:25 1023 30.21 852 25.16 25.3 77.5 26 4.8 40.6
14:30 1023 30.21 852 25.16 25.7 78.3 26 5 41
14:35 1023 30.21 852 25.16 25.2 77.4 26 4.5 40.2
14:40 1023 30.21 852 25.16 25.5 78 26 4.7 40.5
14:45 1023 30.21 852 25.16 25.6 78.1 25 4.5 40.1
14:50 1023 30.21 852 25.16 25.1 77.2 25 3.7 38.7
14:55 1023 30.21 852 25.16 26.3 79.3 25 4.9 40.8
15:00 1023 30.21 852 25.16 25.9 78.5 24 4.3 39.7
15:05 1023 30.21 852 25.16 24.8 76.7 27 4.7 40.4
15:10 1023 30.21 852 25.16 24.6 76.2 27 4.4 40
15:15 1023 30.21 852 25.16 25.1 77.2 26 4.6 40.4
15:20 1023 30.21 852 25.16 25 77.1 27 5.2 41.4
15:25 1023 30.21 852 25.16 25 76.9 27 5 41
15:30 1022 30.18 852 25.16 24.7 76.5 27 4.6 40.2
15:35 1022 30.18 852 25.16 24.8 76.7 27 4.8 40.7
15:40 1022 30.18 851 25.13 24.4 76 28 4.7 40.5
15:45 1022 30.18 851 25.13 24.2 75.5 29 5 41.1
15:50 1022 30.18 851 25.13 24.6 76.2 28 5.2 41.3
15:55 1022 30.18 851 25.13 24.5 76.2 29 5.8 42.4
16:00 1022 30.18 851 25.13 24.1 75.4 29 5.4 41.7
16:05 1022 30.18 851 25.13 24 75.2 29 5.3 41.6
16:10 1022 30.18 851 25.13 23.9 75.1 30 5.6 42.1
16:15 1022 30.18 851 25.13 23.8 74.8 30 5.3 41.5
16:20 1022 30.18 851 25.13 23.6 74.4 30 5.4 41.8
16:25 1022 30.18 851 25.13 23.2 73.8 31 5.2 41.4
16:30 1022 30.18 851 25.13 23.1 73.6 31 5.3 41.5
16:35 1022 30.18 851 25.13 22.9 73.3 32 5.4 41.7
16:40 1022 30.18 851 25.13 22.9 73.2 33 5.9 42.6
16:45 1022 30.18 851 25.13 22.7 72.9 33 5.6 42.2
16:50 1022 30.18 851 25.13 22.7 72.8 33 5.7 42.2
16:55 1022 30.18 851 25.13 22.6 72.7 33 5.7 42.3
17:00 1022 30.18 851 25.13 22.4 72.4 34 5.8 42.5
17:05 1022 30.18 851 25.13 22.3 72.1 34 5.7 42.3
17:10 1022 30.18 851 25.13 22 71.7 34 5.6 42.1
17:15 1022 30.18 851 25.13 21.9 71.3 35 5.7 42.2
17:20 1022 30.18 851 25.13 21.7 71.1 34 5.6 42
17:25 1022 30.18 851 25.13 21.5 70.8 36 6 42.7
17:30 1022 30.18 851 25.13 21.4 70.5 36 5.9 42.6
17:35 1022 30.18 851 25.13 21.3 70.3 37 6.1 42.9
17:40 1022 30.18 851 25.13 21.2 70.1 37 6.2 43.2
17:45 1022 30.18 851 25.13 21 69.7 38 6.3 43.3
17:50 1022 30.18 851 25.13 20.8 69.4 39 6.4 43.5
17:55 1022 30.18 851 25.13 20.7 69.2 40 6.6 43.9
18:00 1022 30.18 851 25.13 20.5 68.8 40 6.7 44.1
18:05 1022 30.18 851 25.13 20.4 68.6 41 6.8 44.2
18:10 1022 30.18 851 25.13 20.2 68.3 41 6.8 44.3
18:15 1022 30.18 851 25.13 20 68 42 6.9 44.4
18:20 1022 30.18 851 25.13 19.9 67.8 42 6.8 44.3
18:25 1022 30.18 851 25.13 19.8 67.6 43 6.9 44.3
18:30 1021 30.15 851 25.13 19.6 67.3 43 7 44.6
18:35 1021 30.15 851 25.13 19.5 67 44 7 44.7
18:40 1021 30.15 851 25.13 19.3 66.8 44 7 44.6
18:45 1021 30.15 851 25.13 19.2 66.6 44 7 44.6
18:50 1021 30.15 851 25.13 19.1 66.4 45 7.1 44.8
18:55 1021 30.15 851 25.13 19 66.2 45 7.1 44.7
19:00 1021 30.15 851 25.13 18.9 66 46 7.2 44.9
19:05 1021 30.15 851 25.13 18.7 65.7 47 7.2 45
19:10 1021 30.15 851 25.13 18.6 65.5 47 7.3 45.2
19:15 1022 30.18 851 25.13 18.5 65.3 48 7.4 45.3
19:20 1021 30.15 851 25.13 18.3 65 48 7.4 45.3
19:25 1022 30.18 851 25.13 18.2 64.8 49 7.3 45.2
19:30 1022 30.18 851 25.13 18.2 64.7 49 7.4 45.3
19:35 1022 30.18 851 25.13 18 64.5 50 7.4 45.4
19:40 1022 30.18 851 25.13 18 64.3 50 7.5 45.5
19:45 1022 30.18 851 25.13 17.9 64.1 50 7.5 45.4
19:50 1022 30.18 851 25.13 17.8 64.1 50 7.5 45.5
19:55 1022 30.18 851 25.13 17.8 64 51 7.7 45.8
20:00 1022 30.18 851 25.13 17.6 63.7 52 7.7 45.9
20:05 1022 30.18 851 25.13 17.5 63.5 53 7.8 46
20:10 1022 30.18 851 25.13 17.4 63.3 53 7.8 46.1
20:15 1022 30.18 851 25.13 17.3 63.1 54 7.9 46.2
20:20 1022 30.18 851 25.13 17.2 62.9 54 7.9 46.2
20:25 1022 30.18 851 25.13 17.1 62.7 54 7.9 46.2
20:30 1022 30.18 851 25.13 17 62.6 54 7.8 46.1
20:35 1022 30.18 851 25.13 16.9 62.4 55 7.8 46
20:40 1022 30.18 851 25.13 16.8 62.2 55 7.7 45.9
20:45 1022 30.18 851 25.13 16.7 62.1 55 7.7 45.8
20:50 1022 30.18 851 25.13 16.6 62 55 7.7 45.8
20:55 1022 30.18 851 25.13 16.6 61.8 55 7.7 45.8
21:00 1022 30.18 851 25.13 16.5 61.7 55 7.6 45.7
21:05 1022 30.18 851 25.13 16.5 61.6 55 7.5 45.5
21:10 1022 30.18 851 25.13 16.5 61.6 55 7.6 45.7
21:15 1022 30.18 851 25.13 16.4 61.5 56 7.6 45.7
21:20 1022 30.18 851 25.13 16.3 61.3 57 7.7 45.9
21:25 1022 30.18 851 25.13 16.1 61 57 7.7 45.9
21:30 1022 30.18 851 25.13 16 60.7 58 7.8 46
21:35 1022 30.18 851 25.13 15.8 60.5 59 7.8 46.1
21:40 1022 30.18 851 25.13 15.8 60.4 59 7.9 46.1
21:45 1022 30.18 851 25.13 15.7 60.2 60 7.9 46.2
21:50 1022 30.18 851 25.13 15.6 60 60 7.9 46.2
21:55 1022 30.18 851 25.13 15.5 59.8 60 7.9 46.2
22:00 1022 30.18 851 25.13 15.4 59.6 61 7.9 46.2
22:05 1022 30.18 851 25.13 15.3 59.5 61 7.9 46.2
22:10 1022 30.18 851 25.13 15.2 59.3 61 7.9 46.2
22:15 1022 30.18 851 25.13 15.1 59.1 62 7.9 46.2
22:20 1022 30.18 851 25.13 15 59 62 7.9 46.2
22:25 1022 30.18 851 25.13 14.9 58.9 62 7.9 46.1
22:30 1022 30.18 851 25.13 14.8 58.7 62 7.7 45.9
22:35 1022 30.18 851 25.13 14.8 58.6 62 7.7 45.9
22:40 1022 30.18 851 25.13 14.7 58.4 63 7.7 45.8
22:45 1022 30.18 851 25.13 14.6 58.3 63 7.7 45.9
22:50 1022 30.18 851 25.13 14.5 58 63 7.6 45.7
22:55 1021 30.15 851 25.13 14.5 58.1 63 7.7 45.8
23:00 1022 30.18 851 25.13 14.4 57.9 64 7.7 45.8
23:05 1022 30.18 851 25.13 14.4 57.9 64 7.7 45.8
23:10 1021 30.15 851 25.13 14.2 57.6 64 7.7 45.8
23:15 1021 30.15 851 25.13 14.1 57.4 65 7.7 45.8
23:20 1021 30.15 851 25.13 14 57.3 65 7.7 45.8
23:25 1021 30.15 851 25.13 14.1 57.3 65 7.6 45.7
23:30 1021 30.15 851 25.13 14.1 57.4 65 7.7 45.9
23:35 1022 30.18 851 25.13 14 57.2 65 7.7 45.8
23:40 1022 30.18 851 25.13 13.9 57 66 7.7 45.8
23:45 1022 30.18 851 25.13 13.8 56.8 66 7.7 45.8
23:50 1022 30.18 851 25.13 13.7 56.7 67 7.7 45.8
23:55 1022 30.18 851 25.13 13.6 56.6 67 7.7 45.8
24:00 1022 30.18 851 25.13 13.6 56.5 67 7.7 45.9